Carlow, Ireland
Current Conditions -  °F | °C
As of 9:00 AM on Wednesday 28 Jan 2015 (Local Time) from EIME Reporting Station
Few Clouds Few Clouds  
Wind Chill: 24°   Ceiling: Unl
Heat Index: 36°   Visibility: 6mi
Dew Point: 32°   Wind: 23mph
Humidity: 87%   Direction: 260°W
Pressure: 29.59"   Gusts: NA
Location:  52.84°N, 6.92°W
Report Text: EIME 280900Z 26020KT 9999 FEW015 02/00 Q1002
Loading
Personal Weather Stations






























Interactive Weather Map New forecast layout! Learn more

10-Day Weather Forecast

Advertisements
Track Severe Weather on mobile